sensor_id;sensor_type;location;lat;lon;timestamp;temperature;humidity
27647;DHT22;42229;51.230;6.240;2023-04-25T00:01:18;8.10;99.90
27647;DHT22;42229;51.230;6.240;2023-04-25T00:03:44;8.10;99.90
27647;DHT22;42229;51.230;6.240;2023-04-25T00:06:11;8.10;99.90
27647;DHT22;42229;51.230;6.240;2023-04-25T00:08:38;8.10;99.90
27647;DHT22;42229;51.230;6.240;2023-04-25T00:11:04;8.20;99.90
27647;DHT22;42229;51.230;6.240;2023-04-25T00:13:30;8.20;99.90
27647;DHT22;42229;51.230;6.240;2023-04-25T00:15:57;8.20;99.90
27647;DHT22;42229;51.230;6.240;2023-04-25T00:18:23;8.20;99.90
27647;DHT22;42229;51.230;6.240;2023-04-25T00:20:51;8.20;99.90
27647;DHT22;42229;51.230;6.240;2023-04-25T00:23:17;8.30;99.90
27647;DHT22;42229;51.230;6.240;2023-04-25T00:25:44;8.30;99.90
27647;DHT22;42229;51.230;6.240;2023-04-25T00:28:11;8.30;99.90
27647;DHT22;42229;51.230;6.240;2023-04-25T00:30:38;8.30;99.90
27647;DHT22;42229;51.230;6.240;2023-04-25T00:33:05;8.40;99.90
27647;DHT22;42229;51.230;6.240;2023-04-25T00:35:32;8.40;99.90
27647;DHT22;42229;51.230;6.240;2023-04-25T00:37:59;8.40;99.90
27647;DHT22;42229;51.230;6.240;2023-04-25T00:40:25;8.50;99.90
27647;DHT22;42229;51.230;6.240;2023-04-25T00:42:51;8.40;99.90
27647;DHT22;42229;51.230;6.240;2023-04-25T00:45:18;8.50;99.90
27647;DHT22;42229;51.230;6.240;2023-04-25T00:47:45;8.50;99.90
27647;DHT22;42229;51.230;6.240;2023-04-25T00:50:12;8.50;99.90
27647;DHT22;42229;51.230;6.240;2023-04-25T00:52:38;8.50;99.90
27647;DHT22;42229;51.230;6.240;2023-04-25T00:55:06;8.50;99.90
27647;DHT22;42229;51.230;6.240;2023-04-25T00:57:34;8.60;99.90
27647;DHT22;42229;51.230;6.240;2023-04-25T01:00:00;8.60;99.90
27647;DHT22;42229;51.230;6.240;2023-04-25T01:02:27;8.60;99.90
27647;DHT22;42229;51.230;6.240;2023-04-25T01:04:54;8.60;99.90
27647;DHT22;42229;51.230;6.240;2023-04-25T01:07:21;8.60;99.90
27647;DHT22;42229;51.230;6.240;2023-04-25T01:09:47;8.60;99.90
27647;DHT22;42229;51.230;6.240;2023-04-25T01:12:13;8.60;99.90
27647;DHT22;42229;51.230;6.240;2023-04-25T01:14:40;8.60;99.90
27647;DHT22;42229;51.230;6.240;2023-04-25T01:17:07;8.60;99.90
27647;DHT22;42229;51.230;6.240;2023-04-25T01:19:34;8.60;99.90
27647;DHT22;42229;51.230;6.240;2023-04-25T01:22:01;8.60;99.90
27647;DHT22;42229;51.230;6.240;2023-04-25T01:24:30;8.60;99.90
27647;DHT22;42229;51.230;6.240;2023-04-25T01:26:58;8.50;99.90
27647;DHT22;42229;51.230;6.240;2023-04-25T01:29:26;8.50;99.90
27647;DHT22;42229;51.230;6.240;2023-04-25T01:31:53;8.40;99.90
27647;DHT22;42229;51.230;6.240;2023-04-25T01:34:19;8.40;99.90
27647;DHT22;42229;51.230;6.240;2023-04-25T01:36:47;8.30;99.90
27647;DHT22;42229;51.230;6.240;2023-04-25T01:39:15;8.30;99.90
27647;DHT22;42229;51.230;6.240;2023-04-25T01:41:42;8.20;99.90
27647;DHT22;42229;51.230;6.240;2023-04-25T01:44:08;8.20;99.90
27647;DHT22;42229;51.230;6.240;2023-04-25T01:46:35;8.10;99.90
27647;DHT22;42229;51.230;6.240;2023-04-25T01:49:02;8.10;99.90
27647;DHT22;42229;51.230;6.240;2023-04-25T01:51:28;8.00;99.90
27647;DHT22;42229;51.230;6.240;2023-04-25T01:53:54;8.00;99.90
27647;DHT22;42229;51.230;6.240;2023-04-25T01:56:22;7.90;99.90
27647;DHT22;42229;51.230;6.240;2023-04-25T01:58:48;7.90;99.90
27647;DHT22;42229;51.230;6.240;2023-04-25T02:01:35;7.90;99.90
27647;DHT22;42229;51.230;6.240;2023-04-25T02:04:19;7.80;99.90
27647;DHT22;42229;51.230;6.240;2023-04-25T02:06:45;7.80;99.90
27647;DHT22;42229;51.230;6.240;2023-04-25T02:09:14;7.70;99.90
27647;DHT22;42229;51.230;6.240;2023-04-25T02:11:45;7.70;99.90
27647;DHT22;42229;51.230;6.240;2023-04-25T02:14:33;7.70;99.90
27647;DHT22;42229;51.230;6.240;2023-04-25T02:17:12;7.60;99.90
27647;DHT22;42229;51.230;6.240;2023-04-25T02:19:38;7.60;99.90
27647;DHT22;42229;51.230;6.240;2023-04-25T02:22:07;7.60;99.90
27647;DHT22;42229;51.230;6.240;2023-04-25T02:24:33;7.60;99.90
27647;DHT22;42229;51.230;6.240;2023-04-25T02:27:00;7.50;99.90
27647;DHT22;42229;51.230;6.240;2023-04-25T02:29:27;7.60;99.90
27647;DHT22;42229;51.230;6.240;2023-04-25T02:31:54;7.50;99.90
27647;DHT22;42229;51.230;6.240;2023-04-25T02:34:21;7.60;99.90
27647;DHT22;42229;51.230;6.240;2023-04-25T02:36:48;7.60;99.90
27647;DHT22;42229;51.230;6.240;2023-04-25T02:39:17;7.60;99.90
27647;DHT22;42229;51.230;6.240;2023-04-25T02:41:44;7.60;99.90
27647;DHT22;42229;51.230;6.240;2023-04-25T02:44:10;7.60;99.90
27647;DHT22;42229;51.230;6.240;2023-04-25T02:46:37;7.60;99.90
27647;DHT22;42229;51.230;6.240;2023-04-25T02:49:03;7.60;99.90
27647;DHT22;42229;51.230;6.240;2023-04-25T02:51:29;7.60;99.90
27647;DHT22;42229;51.230;6.240;2023-04-25T02:53:56;7.60;99.90
27647;DHT22;42229;51.230;6.240;2023-04-25T02:56:22;7.60;99.90
27647;DHT22;42229;51.230;6.240;2023-04-25T02:58:48;7.60;99.90
27647;DHT22;42229;51.230;6.240;2023-04-25T03:01:15;7.60;99.90
27647;DHT22;42229;51.230;6.240;2023-04-25T03:03:41;7.60;99.90
27647;DHT22;42229;51.230;6.240;2023-04-25T03:06:07;7.60;99.90
27647;DHT22;42229;51.230;6.240;2023-04-25T03:08:33;7.60;99.90
27647;DHT22;42229;51.230;6.240;2023-04-25T03:11:01;7.60;99.90
27647;DHT22;42229;51.230;6.240;2023-04-25T03:13:27;7.60;99.90
27647;DHT22;42229;51.230;6.240;2023-04-25T03:15:55;7.60;99.90
27647;DHT22;42229;51.230;6.240;2023-04-25T03:18:22;7.60;99.90
27647;DHT22;42229;51.230;6.240;2023-04-25T03:20:48;7.60;99.90
27647;DHT22;42229;51.230;6.240;2023-04-25T03:23:14;7.60;99.90
27647;DHT22;42229;51.230;6.240;2023-04-25T03:25:42;7.60;99.90
27647;DHT22;42229;51.230;6.240;2023-04-25T03:28:09;7.60;99.90
27647;DHT22;42229;51.230;6.240;2023-04-25T03:30:35;7.70;99.90
27647;DHT22;42229;51.230;6.240;2023-04-25T03:33:01;7.70;99.90
27647;DHT22;42229;51.230;6.240;2023-04-25T03:35:28;7.70;99.90
27647;DHT22;42229;51.230;6.240;2023-04-25T03:37:54;7.80;99.90
27647;DHT22;42229;51.230;6.240;2023-04-25T03:40:26;7.80;99.90
27647;DHT22;42229;51.230;6.240;2023-04-25T03:43:21;7.70;99.90
27647;DHT22;42229;51.230;6.240;2023-04-25T03:45:53;7.70;99.90
27647;DHT22;42229;51.230;6.240;2023-04-25T03:48:22;7.70;99.90
27647;DHT22;42229;51.230;6.240;2023-04-25T03:50:51;7.70;99.90
27647;DHT22;42229;51.230;6.240;2023-04-25T03:53:17;7.70;99.90
27647;DHT22;42229;51.230;6.240;2023-04-25T03:56:10;7.70;99.90
27647;DHT22;42229;51.230;6.240;2023-04-25T03:58:38;7.70;99.90
27647;DHT22;42229;51.230;6.240;2023-04-25T04:01:04;7.70;99.90
27647;DHT22;42229;51.230;6.240;2023-04-25T04:03:34;7.60;99.90
27647;DHT22;42229;51.230;6.240;2023-04-25T04:06:04;7.60;99.90
27647;DHT22;42229;51.230;6.240;2023-04-25T04:08:34;7.60;99.90
27647;DHT22;42229;51.230;6.240;2023-04-25T04:11:02;7.60;99.90
27647;DHT22;42229;51.230;6.240;2023-04-25T04:13:28;7.60;99.90
27647;DHT22;42229;51.230;6.240;2023-04-25T04:15:55;7.60;99.90
27647;DHT22;42229;51.230;6.240;2023-04-25T04:18:22;7.60;99.90
27647;DHT22;42229;51.230;6.240;2023-04-25T04:20:48;7.60;99.90
27647;DHT22;42229;51.230;6.240;2023-04-25T04:23:16;7.50;99.90
27647;DHT22;42229;51.230;6.240;2023-04-25T04:25:43;7.50;99.90
27647;DHT22;42229;51.230;6.240;2023-04-25T04:28:39;7.50;99.90
27647;DHT22;42229;51.230;6.240;2023-04-25T04:31:22;7.50;99.90
27647;DHT22;42229;51.230;6.240;2023-04-25T04:33:50;7.50;99.90
27647;DHT22;42229;51.230;6.240;2023-04-25T04:36:17;7.50;99.90
27647;DHT22;42229;51.230;6.240;2023-04-25T04:38:46;7.50;99.90
27647;DHT22;42229;51.230;6.240;2023-04-25T04:41:20;7.50;99.90
27647;DHT22;42229;51.230;6.240;2023-04-25T04:44:12;7.50;99.90
27647;DHT22;42229;51.230;6.240;2023-04-25T04:47:04;7.60;99.90
27647;DHT22;42229;51.230;6.240;2023-04-25T04:49:58;7.60;99.90
27647;DHT22;42229;51.230;6.240;2023-04-25T04:52:41;7.60;99.90
27647;DHT22;42229;51.230;6.240;2023-04-25T04:55:46;7.60;99.90
27647;DHT22;42229;51.230;6.240;2023-04-25T04:58:25;7.70;99.90
27647;DHT22;42229;51.230;6.240;2023-04-25T05:01:19;7.70;99.90
27647;DHT22;42229;51.230;6.240;2023-04-25T05:04:08;7.70;99.90
27647;DHT22;42229;51.230;6.240;2023-04-25T05:07:10;7.80;99.90
27647;DHT22;42229;51.230;6.240;2023-04-25T05:09:49;7.80;99.90
27647;DHT22;42229;51.230;6.240;2023-04-25T05:12:42;7.80;99.90
27647;DHT22;42229;51.230;6.240;2023-04-25T05:15:29;7.90;99.90
27647;DHT22;42229;51.230;6.240;2023-04-25T05:18:22;7.90;99.90
27647;DHT22;42229;51.230;6.240;2023-04-25T05:21:17;8.00;99.90
27647;DHT22;42229;51.230;6.240;2023-04-25T05:23:56;8.00;99.90
27647;DHT22;42229;51.230;6.240;2023-04-25T05:26:40;8.10;99.90
27647;DHT22;42229;51.230;6.240;2023-04-25T05:29:33;8.10;99.90
27647;DHT22;42229;51.230;6.240;2023-04-25T05:32:21;8.20;99.90
27647;DHT22;42229;51.230;6.240;2023-04-25T05:34:49;8.20;99.90
27647;DHT22;42229;51.230;6.240;2023-04-25T05:37:32;8.20;99.90
27647;DHT22;42229;51.230;6.240;2023-04-25T05:40:08;8.30;99.90
27647;DHT22;42229;51.230;6.240;2023-04-25T05:42:44;8.40;99.90
27647;DHT22;42229;51.230;6.240;2023-04-25T05:45:29;8.40;99.90
27647;DHT22;42229;51.230;6.240;2023-04-25T05:48:08;8.50;99.90
27647;DHT22;42229;51.230;6.240;2023-04-25T05:50:55;8.50;99.90
27647;DHT22;42229;51.230;6.240;2023-04-25T05:54:00;8.60;99.90
27647;DHT22;42229;51.230;6.240;2023-04-25T05:56:26;8.60;99.90
27647;DHT22;42229;51.230;6.240;2023-04-25T05:58:53;8.70;99.90
27647;DHT22;42229;51.230;6.240;2023-04-25T06:01:21;8.80;99.90
27647;DHT22;42229;51.230;6.240;2023-04-25T06:03:48;8.80;99.90
27647;DHT22;42229;51.230;6.240;2023-04-25T06:06:16;8.90;99.90
27647;DHT22;42229;51.230;6.240;2023-04-25T06:08:43;8.90;99.90
27647;DHT22;42229;51.230;6.240;2023-04-25T06:11:11;9.00;99.90
27647;DHT22;42229;51.230;6.240;2023-04-25T06:13:37;9.00;99.90
27647;DHT22;42229;51.230;6.240;2023-04-25T06:16:04;9.00;99.90
27647;DHT22;42229;51.230;6.240;2023-04-25T06:18:30;9.10;99.90
27647;DHT22;42229;51.230;6.240;2023-04-25T06:20:57;9.10;99.90
27647;DHT22;42229;51.230;6.240;2023-04-25T06:23:24;9.10;99.90
27647;DHT22;42229;51.230;6.240;2023-04-25T06:25:56;9.10;99.90
27647;DHT22;42229;51.230;6.240;2023-04-25T06:28:22;9.20;99.90
27647;DHT22;42229;51.230;6.240;2023-04-25T06:30:50;9.20;99.90
27647;DHT22;42229;51.230;6.240;2023-04-25T06:33:18;9.20;99.90
27647;DHT22;42229;51.230;6.240;2023-04-25T06:35:46;9.20;99.90
27647;DHT22;42229;51.230;6.240;2023-04-25T06:38:16;9.30;99.90
27647;DHT22;42229;51.230;6.240;2023-04-25T06:40:46;9.30;99.90
27647;DHT22;42229;51.230;6.240;2023-04-25T06:43:13;9.30;99.90
27647;DHT22;42229;51.230;6.240;2023-04-25T06:46:01;9.40;99.90
27647;DHT22;42229;51.230;6.240;2023-04-25T06:48:29;9.50;99.90
27647;DHT22;42229;51.230;6.240;2023-04-25T06:50:56;9.50;99.90
27647;DHT22;42229;51.230;6.240;2023-04-25T06:53:23;9.60;99.90
27647;DHT22;42229;51.230;6.240;2023-04-25T06:55:55;9.60;99.90
27647;DHT22;42229;51.230;6.240;2023-04-25T06:58:22;9.60;99.90
27647;DHT22;42229;51.230;6.240;2023-04-25T07:01:02;9.60;99.90
27647;DHT22;42229;51.230;6.240;2023-04-25T07:03:29;9.70;99.90
27647;DHT22;42229;51.230;6.240;2023-04-25T07:05:59;9.70;99.90
27647;DHT22;42229;51.230;6.240;2023-04-25T07:08:26;9.80;99.90
27647;DHT22;42229;51.230;6.240;2023-04-25T07:10:52;9.80;99.90
27647;DHT22;42229;51.230;6.240;2023-04-25T07:13:18;9.80;99.90
27647;DHT22;42229;51.230;6.240;2023-04-25T07:15:46;9.90;99.90
27647;DHT22;42229;51.230;6.240;2023-04-25T07:18:15;10.00;99.90
27647;DHT22;42229;51.230;6.240;2023-04-25T07:20:41;10.00;99.90
27647;DHT22;42229;51.230;6.240;2023-04-25T07:23:08;10.10;99.90
27647;DHT22;42229;51.230;6.240;2023-04-25T07:25:34;10.10;99.90
27647;DHT22;42229;51.230;6.240;2023-04-25T07:28:01;10.20;99.90
27647;DHT22;42229;51.230;6.240;2023-04-25T07:30:28;10.30;99.90
27647;DHT22;42229;51.230;6.240;2023-04-25T07:32:54;10.40;99.90
27647;DHT22;42229;51.230;6.240;2023-04-25T07:35:21;10.40;99.90
27647;DHT22;42229;51.230;6.240;2023-04-25T07:37:48;10.50;99.90
27647;DHT22;42229;51.230;6.240;2023-04-25T07:40:18;10.60;99.90
27647;DHT22;42229;51.230;6.240;2023-04-25T07:42:48;10.70;99.90
27647;DHT22;42229;51.230;6.240;2023-04-25T07:45:18;10.80;99.90
27647;DHT22;42229;51.230;6.240;2023-04-25T07:47:45;10.90;99.90
27647;DHT22;42229;51.230;6.240;2023-04-25T07:50:12;11.00;99.90
27647;DHT22;42229;51.230;6.240;2023-04-25T07:52:38;11.10;99.90
27647;DHT22;42229;51.230;6.240;2023-04-25T07:55:16;11.20;99.90
27647;DHT22;42229;51.230;6.240;2023-04-25T07:57:57;11.20;99.90
27647;DHT22;42229;51.230;6.240;2023-04-25T08:00:23;11.30;99.90
27647;DHT22;42229;51.230;6.240;2023-04-25T08:03:04;11.40;99.90
27647;DHT22;42229;51.230;6.240;2023-04-25T08:05:32;11.40;99.90
27647;DHT22;42229;51.230;6.240;2023-04-25T08:08:03;11.50;99.90
27647;DHT22;42229;51.230;6.240;2023-04-25T08:10:32;11.60;99.90
27647;DHT22;42229;51.230;6.240;2023-04-25T08:12:59;11.60;99.90
27647;DHT22;42229;51.230;6.240;2023-04-25T08:15:26;11.70;99.90
27647;DHT22;42229;51.230;6.240;2023-04-25T08:17:52;11.70;99.90
27647;DHT22;42229;51.230;6.240;2023-04-25T08:20:19;11.80;99.90
27647;DHT22;42229;51.230;6.240;2023-04-25T08:22:45;11.80;99.90
27647;DHT22;42229;51.230;6.240;2023-04-25T08:25:41;11.80;99.90
27647;DHT22;42229;51.230;6.240;2023-04-25T08:28:10;11.90;99.90
27647;DHT22;42229;51.230;6.240;2023-04-25T08:30:36;12.00;99.90
27647;DHT22;42229;51.230;6.240;2023-04-25T08:33:04;12.00;99.90
27647;DHT22;42229;51.230;6.240;2023-04-25T08:35:48;12.10;99.90
27647;DHT22;42229;51.230;6.240;2023-04-25T08:38:16;12.10;99.90
27647;DHT22;42229;51.230;6.240;2023-04-25T08:40:43;12.20;99.90
27647;DHT22;42229;51.230;6.240;2023-04-25T08:43:15;12.20;99.90
27647;DHT22;42229;51.230;6.240;2023-04-25T08:45:45;12.30;99.90
27647;DHT22;42229;51.230;6.240;2023-04-25T08:48:24;12.20;99.90
27647;DHT22;42229;51.230;6.240;2023-04-25T08:50:54;12.20;99.90
27647;DHT22;42229;51.230;6.240;2023-04-25T08:53:25;12.20;99.90
27647;DHT22;42229;51.230;6.240;2023-04-25T08:55:53;12.30;99.90
27647;DHT22;42229;51.230;6.240;2023-04-25T08:58:20;12.30;99.90
27647;DHT22;42229;51.230;6.240;2023-04-25T09:00:47;12.40;99.90
27647;DHT22;42229;51.230;6.240;2023-04-25T09:03:15;12.40;99.90
27647;DHT22;42229;51.230;6.240;2023-04-25T09:05:42;12.40;99.90
27647;DHT22;42229;51.230;6.240;2023-04-25T09:08:08;12.50;99.90
27647;DHT22;42229;51.230;6.240;2023-04-25T09:10:36;12.60;99.90
27647;DHT22;42229;51.230;6.240;2023-04-25T09:13:07;12.60;99.90
27647;DHT22;42229;51.230;6.240;2023-04-25T09:16:03;12.60;99.90
27647;DHT22;42229;51.230;6.240;2023-04-25T09:18:43;12.70;99.90
27647;DHT22;42229;51.230;6.240;2023-04-25T09:21:11;12.80;99.90
27647;DHT22;42229;51.230;6.240;2023-04-25T09:23:43;12.90;99.90
27647;DHT22;42229;51.230;6.240;2023-04-25T09:26:15;12.90;99.90
27647;DHT22;42229;51.230;6.240;2023-04-25T09:28:44;12.90;99.90
27647;DHT22;42229;51.230;6.240;2023-04-25T09:31:12;13.10;99.90
27647;DHT22;42229;51.230;6.240;2023-04-25T09:33:47;12.90;99.90
27647;DHT22;42229;51.230;6.240;2023-04-25T09:36:13;12.90;99.90
27647;DHT22;42229;51.230;6.240;2023-04-25T09:39:02;12.80;99.90
27647;DHT22;42229;51.230;6.240;2023-04-25T09:41:41;12.90;99.90
27647;DHT22;42229;51.230;6.240;2023-04-25T09:44:08;12.90;99.90
27647;DHT22;42229;51.230;6.240;2023-04-25T09:46:36;12.90;99.90
27647;DHT22;42229;51.230;6.240;2023-04-25T09:49:07;13.10;99.90
27647;DHT22;42229;51.230;6.240;2023-04-25T09:52:00;13.20;99.90
27647;DHT22;42229;51.230;6.240;2023-04-25T09:54:48;13.30;99.90
27647;DHT22;42229;51.230;6.240;2023-04-25T09:57:21;13.40;99.90
27647;DHT22;42229;51.230;6.240;2023-04-25T09:59:50;13.50;99.90
27647;DHT22;42229;51.230;6.240;2023-04-25T10:02:21;13.60;99.90
27647;DHT22;42229;51.230;6.240;2023-04-25T10:04:52;13.60;99.90
27647;DHT22;42229;51.230;6.240;2023-04-25T10:07:25;13.60;99.90
27647;DHT22;42229;51.230;6.240;2023-04-25T10:10:01;13.60;99.90
27647;DHT22;42229;51.230;6.240;2023-04-25T10:12:29;13.60;99.90
27647;DHT22;42229;51.230;6.240;2023-04-25T10:14:57;13.70;99.90
27647;DHT22;42229;51.230;6.240;2023-04-25T10:17:25;13.70;99.90
27647;DHT22;42229;51.230;6.240;2023-04-25T10:19:53;13.80;99.90
27647;DHT22;42229;51.230;6.240;2023-04-25T10:22:26;13.80;99.90
27647;DHT22;42229;51.230;6.240;2023-04-25T10:24:56;13.80;99.90
27647;DHT22;42229;51.230;6.240;2023-04-25T10:27:22;13.90;99.90
27647;DHT22;42229;51.230;6.240;2023-04-25T10:30:02;13.90;99.90
27647;DHT22;42229;51.230;6.240;2023-04-25T10:32:30;13.90;99.90
27647;DHT22;42229;51.230;6.240;2023-04-25T10:35:04;13.90;99.90
27647;DHT22;42229;51.230;6.240;2023-04-25T10:37:36;13.90;99.90
27647;DHT22;42229;51.230;6.240;2023-04-25T10:40:09;13.90;99.90
27647;DHT22;42229;51.230;6.240;2023-04-25T10:42:35;14.00;99.90
27647;DHT22;42229;51.230;6.240;2023-04-25T10:45:04;14.10;99.90
27647;DHT22;42229;51.230;6.240;2023-04-25T10:47:36;14.10;99.90
27647;DHT22;42229;51.230;6.240;2023-04-25T10:50:10;14.20;99.90
27647;DHT22;42229;51.230;6.240;2023-04-25T10:52:40;14.20;99.90
27647;DHT22;42229;51.230;6.240;2023-04-25T10:55:06;14.30;99.90
27647;DHT22;42229;51.230;6.240;2023-04-25T10:57:37;14.30;99.90
27647;DHT22;42229;51.230;6.240;2023-04-25T11:02:38;14.40;99.90
27647;DHT22;42229;51.230;6.240;2023-04-25T11:05:07;14.40;99.90
27647;DHT22;42229;51.230;6.240;2023-04-25T11:07:34;14.50;99.90
27647;DHT22;42229;51.230;6.240;2023-04-25T11:10:04;14.40;99.90
27647;DHT22;42229;51.230;6.240;2023-04-25T11:12:31;14.40;99.90
27647;DHT22;42229;51.230;6.240;2023-04-25T11:14:58;14.30;99.90
27647;DHT22;42229;51.230;6.240;2023-04-25T11:17:31;14.10;99.90
27647;DHT22;42229;51.230;6.240;2023-04-25T11:19:59;13.90;99.90
27647;DHT22;42229;51.230;6.240;2023-04-25T11:22:28;13.80;99.90
27647;DHT22;42229;51.230;6.240;2023-04-25T11:24:55;13.60;99.90
27647;DHT22;42229;51.230;6.240;2023-04-25T11:27:21;13.50;99.90
27647;DHT22;42229;51.230;6.240;2023-04-25T11:29:50;13.30;99.90
27647;DHT22;42229;51.230;6.240;2023-04-25T11:32:17;13.10;99.90
27647;DHT22;42229;51.230;6.240;2023-04-25T11:34:44;12.90;99.90
27647;DHT22;42229;51.230;6.240;2023-04-25T11:37:13;12.90;99.90
27647;DHT22;42229;51.230;6.240;2023-04-25T11:39:45;12.70;99.90
27647;DHT22;42229;51.230;6.240;2023-04-25T11:42:12;12.70;99.90
27647;DHT22;42229;51.230;6.240;2023-04-25T11:44:39;12.60;99.90
27647;DHT22;42229;51.230;6.240;2023-04-25T11:47:06;12.60;99.90
27647;DHT22;42229;51.230;6.240;2023-04-25T11:49:32;12.60;99.90
27647;DHT22;42229;51.230;6.240;2023-04-25T11:51:58;12.70;99.90
27647;DHT22;42229;51.230;6.240;2023-04-25T11:54:25;12.80;99.90
27647;DHT22;42229;51.230;6.240;2023-04-25T11:56:52;13.00;99.90
27647;DHT22;42229;51.230;6.240;2023-04-25T11:59:18;13.10;99.90
27647;DHT22;42229;51.230;6.240;2023-04-25T12:01:49;13.40;99.90
27647;DHT22;42229;51.230;6.240;2023-04-25T12:06:47;14.00;99.90
27647;DHT22;42229;51.230;6.240;2023-04-25T12:09:16;14.30;99.90
27647;DHT22;42229;51.230;6.240;2023-04-25T12:11:48;14.70;99.90
27647;DHT22;42229;51.230;6.240;2023-04-25T12:14:22;15.20;99.90
27647;DHT22;42229;51.230;6.240;2023-04-25T12:16:49;15.60;99.90
27647;DHT22;42229;51.230;6.240;2023-04-25T12:19:17;16.10;99.90
27647;DHT22;42229;51.230;6.240;2023-04-25T12:21:44;16.60;99.90
27647;DHT22;42229;51.230;6.240;2023-04-25T12:29:28;17.70;99.90
27647;DHT22;42229;51.230;6.240;2023-04-25T12:31:55;17.80;99.10
27647;DHT22;42229;51.230;6.240;2023-04-25T12:34:22;17.80;99.90
27647;DHT22;42229;51.230;6.240;2023-04-25T12:36:49;17.90;99.90
27647;DHT22;42229;51.230;6.240;2023-04-25T12:39:19;17.90;99.90
27647;DHT22;42229;51.230;6.240;2023-04-25T12:41:50;18.00;99.90
27647;DHT22;42229;51.230;6.240;2023-04-25T12:44:16;18.00;99.90
27647;DHT22;42229;51.230;6.240;2023-04-25T12:46:43;17.90;99.90
27647;DHT22;42229;51.230;6.240;2023-04-25T12:49:09;17.80;99.90
27647;DHT22;42229;51.230;6.240;2023-04-25T12:51:35;17.60;99.90
27647;DHT22;42229;51.230;6.240;2023-04-25T12:54:02;17.30;99.90
27647;DHT22;42229;51.230;6.240;2023-04-25T12:56:30;16.90;99.90
27647;DHT22;42229;51.230;6.240;2023-04-25T12:58:57;16.40;99.90
27647;DHT22;42229;51.230;6.240;2023-04-25T13:01:24;15.80;99.90
27647;DHT22;42229;51.230;6.240;2023-04-25T13:03:50;15.30;99.90
27647;DHT22;42229;51.230;6.240;2023-04-25T13:06:17;14.70;99.90
27647;DHT22;42229;51.230;6.240;2023-04-25T13:08:44;14.10;99.90
27647;DHT22;42229;51.230;6.240;2023-04-25T13:11:10;13.70;99.90
27647;DHT22;42229;51.230;6.240;2023-04-25T13:13:37;13.20;99.90
27647;DHT22;42229;51.230;6.240;2023-04-25T13:16:03;12.90;99.90
27647;DHT22;42229;51.230;6.240;2023-04-25T13:18:30;12.60;99.90
27647;DHT22;42229;51.230;6.240;2023-04-25T13:20:57;12.30;99.90
27647;DHT22;42229;51.230;6.240;2023-04-25T13:23:25;12.20;99.90
27647;DHT22;42229;51.230;6.240;2023-04-25T13:25:52;12.10;99.90
27647;DHT22;42229;51.230;6.240;2023-04-25T13:28:18;12.00;99.90
27647;DHT22;42229;51.230;6.240;2023-04-25T13:30:45;12.00;99.90
27647;DHT22;42229;51.230;6.240;2023-04-25T13:33:11;12.00;99.90
27647;DHT22;42229;51.230;6.240;2023-04-25T13:35:38;12.20;99.90
27647;DHT22;42229;51.230;6.240;2023-04-25T13:38:04;12.40;99.90
27647;DHT22;42229;51.230;6.240;2023-04-25T13:40:31;12.60;99.90
27647;DHT22;42229;51.230;6.240;2023-04-25T13:42:57;12.90;99.90
27647;DHT22;42229;51.230;6.240;2023-04-25T13:45:24;13.20;99.90
27647;DHT22;42229;51.230;6.240;2023-04-25T13:47:51;13.60;99.90
27647;DHT22;42229;51.230;6.240;2023-04-25T13:50:17;13.90;99.90
27647;DHT22;42229;51.230;6.240;2023-04-25T13:52:43;14.10;99.90
27647;DHT22;42229;51.230;6.240;2023-04-25T13:55:09;14.40;99.90
27647;DHT22;42229;51.230;6.240;2023-04-25T13:57:36;14.70;99.90
27647;DHT22;42229;51.230;6.240;2023-04-25T14:00:04;15.00;99.90
27647;DHT22;42229;51.230;6.240;2023-04-25T14:02:34;15.30;99.90
27647;DHT22;42229;51.230;6.240;2023-04-25T14:05:02;15.70;99.90
27647;DHT22;42229;51.230;6.240;2023-04-25T14:07:29;16.10;99.90
27647;DHT22;42229;51.230;6.240;2023-04-25T14:09:56;16.50;99.90
27647;DHT22;42229;51.230;6.240;2023-04-25T14:12:23;16.80;99.90
27647;DHT22;42229;51.230;6.240;2023-04-25T14:14:49;17.00;99.90
27647;DHT22;42229;51.230;6.240;2023-04-25T14:17:16;17.10;99.90
27647;DHT22;42229;51.230;6.240;2023-04-25T14:19:42;17.00;99.90
27647;DHT22;42229;51.230;6.240;2023-04-25T14:22:11;16.90;99.90
27647;DHT22;42229;51.230;6.240;2023-04-25T14:24:37;16.70;99.90
27647;DHT22;42229;51.230;6.240;2023-04-25T14:27:04;16.60;99.90
27647;DHT22;42229;51.230;6.240;2023-04-25T14:29:30;16.60;99.90
27647;DHT22;42229;51.230;6.240;2023-04-25T14:31:57;16.50;99.90
27647;DHT22;42229;51.230;6.240;2023-04-25T14:34:24;16.60;99.90
27647;DHT22;42229;51.230;6.240;2023-04-25T14:36:51;16.70;99.90
27647;DHT22;42229;51.230;6.240;2023-04-25T14:39:18;16.80;99.90
27647;DHT22;42229;51.230;6.240;2023-04-25T14:41:44;17.00;99.90
27647;DHT22;42229;51.230;6.240;2023-04-25T14:44:11;17.10;99.90
27647;DHT22;42229;51.230;6.240;2023-04-25T14:46:37;17.40;99.90
27647;DHT22;42229;51.230;6.240;2023-04-25T14:49:03;17.60;99.90
27647;DHT22;42229;51.230;6.240;2023-04-25T14:51:30;17.90;99.90
27647;DHT22;42229;51.230;6.240;2023-04-25T14:53:56;18.10;99.90
27647;DHT22;42229;51.230;6.240;2023-04-25T14:56:23;18.20;98.90
27647;DHT22;42229;51.230;6.240;2023-04-25T14:58:50;18.30;99.90
27647;DHT22;42229;51.230;6.240;2023-04-25T15:01:16;18.30;99.90
27647;DHT22;42229;51.230;6.240;2023-04-25T15:03:42;18.30;99.90
27647;DHT22;42229;51.230;6.240;2023-04-25T15:06:08;18.30;99.90
27647;DHT22;42229;51.230;6.240;2023-04-25T15:08:35;18.30;98.30
27647;DHT22;42229;51.230;6.240;2023-04-25T15:11:01;18.30;99.90
27647;DHT22;42229;51.230;6.240;2023-04-25T15:13:28;18.40;99.90
27647;DHT22;42229;51.230;6.240;2023-04-25T15:15:55;18.40;99.90
27647;DHT22;42229;51.230;6.240;2023-04-25T15:18:21;18.50;99.90
27647;DHT22;42229;51.230;6.240;2023-04-25T15:20:49;18.60;99.90
27647;DHT22;42229;51.230;6.240;2023-04-25T15:23:16;18.70;99.90
27647;DHT22;42229;51.230;6.240;2023-04-25T15:25:43;18.70;97.30
27647;DHT22;42229;51.230;6.240;2023-04-25T15:28:10;18.70;99.70
27647;DHT22;42229;51.230;6.240;2023-04-25T15:30:36;18.70;97.00
27647;DHT22;42229;51.230;6.240;2023-04-25T15:33:03;18.70;99.90
27647;DHT22;42229;51.230;6.240;2023-04-25T15:35:29;18.50;99.50
27647;DHT22;42229;51.230;6.240;2023-04-25T15:37:55;18.20;93.90
27647;DHT22;42229;51.230;6.240;2023-04-25T15:40:22;18.00;99.90
27647;DHT22;42229;51.230;6.240;2023-04-25T15:42:49;17.80;99.90
27647;DHT22;42229;51.230;6.240;2023-04-25T15:45:23;17.70;99.00
27647;DHT22;42229;51.230;6.240;2023-04-25T15:47:54;17.50;99.90
27647;DHT22;42229;51.230;6.240;2023-04-25T15:50:21;17.50;97.00
27647;DHT22;42229;51.230;6.240;2023-04-25T15:52:48;17.50;99.90
27647;DHT22;42229;51.230;6.240;2023-04-25T15:55:15;17.60;99.70
27647;DHT22;42229;51.230;6.240;2023-04-25T15:57:43;17.60;97.60
27647;DHT22;42229;51.230;6.240;2023-04-25T16:00:10;17.50;99.30
27647;DHT22;42229;51.230;6.240;2023-04-25T16:02:43;17.40;97.40
27647;DHT22;42229;51.230;6.240;2023-04-25T16:05:10;17.20;98.30